createdAt,value
2023-04-11T00:02:08.202Z,13.13
2023-04-11T00:04:39.133Z,8.60
2023-04-11T00:07:07.680Z,7.00
2023-04-11T00:09:35.733Z,8.60
2023-04-11T00:12:03.437Z,9.55
2023-04-11T00:14:32.297Z,10.20
2023-04-11T00:17:02.008Z,8.55
2023-04-11T00:19:29.776Z,6.47
2023-04-11T00:21:58.437Z,8.93
2023-04-11T00:24:27.002Z,9.85
2023-04-11T00:26:54.928Z,8.18
2023-04-11T00:29:22.649Z,6.95
2023-04-11T00:31:51.256Z,7.57
2023-04-11T00:34:20.603Z,5.38
2023-04-11T00:36:48.513Z,10.25
2023-04-11T00:39:18.801Z,8.45
2023-04-11T00:41:46.581Z,7.75
2023-04-11T00:44:14.600Z,7.68
2023-04-11T00:46:46.128Z,9.02
2023-04-11T00:49:14.526Z,8.40
2023-04-11T00:51:43.697Z,5.10
2023-04-11T00:54:12.087Z,8.10
2023-04-11T00:56:40.713Z,10.95
2023-04-11T00:59:08.461Z,10.40
2023-04-11T01:01:36.575Z,11.15
2023-04-11T01:04:05.409Z,8.38
2023-04-11T01:06:33.795Z,10.63
2023-04-11T01:09:04.838Z,10.60
2023-04-11T01:11:33.536Z,13.20
2023-04-11T01:14:01.590Z,12.85
2023-04-11T01:16:29.359Z,13.90
2023-04-11T01:18:57.332Z,11.93
2023-04-11T01:21:27.082Z,12.48
2023-04-11T01:23:58.469Z,13.63
2023-04-11T01:26:26.325Z,12.38
2023-04-11T01:28:54.246Z,13.38
2023-04-11T01:31:22.567Z,14.93
2023-04-11T01:33:50.650Z,17.65
2023-04-11T01:36:18.441Z,11.93
2023-04-11T01:38:46.226Z,16.55
2023-04-11T01:41:17.811Z,15.55
2023-04-11T01:43:46.132Z,19.60
2023-04-11T01:46:14.881Z,15.73
2023-04-11T01:48:43.333Z,17.58
2023-04-11T01:51:11.098Z,19.10
2023-04-11T01:53:38.925Z,18.02
2023-04-11T01:56:07.752Z,14.82
2023-04-11T01:58:36.835Z,16.65
2023-04-11T02:01:05.507Z,17.58
2023-04-11T02:03:33.420Z,14.88
2023-04-11T02:06:01.162Z,13.55
2023-04-11T02:08:28.914Z,20.70
2023-04-11T02:10:56.614Z,20.30
2023-04-11T02:13:24.388Z,24.13
2023-04-11T02:15:53.521Z,20.70
2023-04-11T02:18:21.271Z,23.17
2023-04-11T02:20:50.699Z,24.90
2023-04-11T02:23:18.411Z,14.82
2023-04-11T02:25:46.172Z,19.77
2023-04-11T02:28:13.864Z,17.70
2023-04-11T02:30:41.633Z,16.67
2023-04-11T02:33:10.761Z,16.90
2023-04-11T02:35:38.587Z,21.42
2023-04-11T02:38:06.261Z,16.75
2023-04-11T02:40:33.981Z,24.33
2023-04-11T02:43:02.113Z,23.45
2023-04-11T02:45:29.844Z,20.98
2023-04-11T02:47:58.420Z,20.23
2023-04-11T02:50:27.712Z,19.58
2023-04-11T02:52:55.666Z,20.67
2023-04-11T02:55:24.140Z,20.02
2023-04-11T02:57:52.296Z,22.67
2023-04-11T03:00:21.384Z,24.35
2023-04-11T03:02:50.124Z,19.90
2023-04-11T03:05:17.900Z,20.20
2023-04-11T03:07:47.040Z,22.27
2023-04-11T03:10:14.830Z,21.50
2023-04-11T03:12:42.687Z,26.15
2023-04-11T03:15:10.959Z,22.88
2023-04-11T03:17:38.690Z,23.70
2023-04-11T03:20:08.275Z,20.80
2023-04-11T03:22:36.024Z,22.33
2023-04-11T03:25:06.358Z,20.00
2023-04-11T03:27:34.091Z,18.55
2023-04-11T03:30:01.792Z,24.10
2023-04-11T03:32:29.602Z,21.77
2023-04-11T03:35:01.333Z,22.88
2023-04-11T03:37:29.170Z,20.60
2023-04-11T03:39:56.981Z,20.08
2023-04-11T03:42:26.098Z,22.95
2023-04-11T03:44:53.773Z,22.27
2023-04-11T03:47:21.561Z,20.77
2023-04-11T03:49:49.225Z,22.40
2023-04-11T03:52:17.542Z,23.10
2023-04-11T03:54:47.542Z,24.70
2023-04-11T03:57:15.632Z,25.95
2023-04-11T03:59:44.671Z,22.92
2023-04-11T04:02:12.637Z,25.58
2023-04-11T04:04:43.447Z,22.13
2023-04-11T04:07:11.207Z,24.00
2023-04-11T04:09:38.936Z,22.05
2023-04-11T04:12:07.620Z,19.58
2023-04-11T04:14:35.514Z,17.15
2023-04-11T04:17:04.643Z,22.92
2023-04-11T04:19:32.349Z,24.15
2023-04-11T04:22:00.053Z,24.85
2023-04-11T04:24:27.880Z,19.83
2023-04-11T04:26:57.915Z,16.27
2023-04-11T04:29:34.086Z,20.42
2023-04-11T04:32:10.691Z,19.90
2023-04-11T04:34:41.700Z,25.67
2023-04-11T04:37:09.355Z,19.95
2023-04-11T04:39:38.137Z,16.63
2023-04-11T04:42:06.002Z,21.50
2023-04-11T04:44:34.256Z,15.65
2023-04-11T04:47:01.956Z,18.52
2023-04-11T04:49:31.060Z,20.92
2023-04-11T04:51:58.727Z,17.85
2023-04-11T04:54:26.537Z,17.45
2023-04-11T04:56:54.261Z,19.08
2023-04-11T04:59:22.140Z,18.20
2023-04-11T05:01:51.579Z,18.38
2023-04-11T05:04:19.785Z,18.88
2023-04-11T05:06:48.928Z,18.27
2023-04-11T05:09:16.642Z,22.70
2023-04-11T05:11:44.700Z,17.50
2023-04-11T05:14:12.365Z,17.88
2023-04-11T05:16:42.079Z,16.17
2023-04-11T05:19:10.076Z,16.00
2023-04-11T05:21:38.110Z,16.88
2023-04-11T05:24:07.507Z,19.08
2023-04-11T05:26:35.404Z,16.90
2023-04-11T05:29:03.110Z,14.98
2023-04-11T05:31:30.923Z,18.42
2023-04-11T05:33:59.083Z,13.82
2023-04-11T05:36:28.339Z,15.88
2023-04-11T05:38:56.135Z,16.90
2023-04-11T05:41:25.502Z,19.60
2023-04-11T05:43:53.235Z,14.40
2023-04-11T05:46:20.965Z,20.05
2023-04-11T05:48:48.752Z,21.20
2023-04-11T05:51:16.533Z,16.40
2023-04-11T05:53:44.945Z,18.60
2023-04-11T05:56:12.957Z,17.88
2023-04-11T05:58:43.945Z,20.48
2023-04-11T06:01:14.303Z,16.42
2023-04-11T06:03:42.208Z,13.23
2023-04-11T06:06:10.228Z,18.40
2023-04-11T06:08:38.158Z,16.77
2023-04-11T06:11:06.460Z,15.38
2023-04-11T06:13:34.155Z,16.58
2023-04-11T06:16:03.585Z,15.48
2023-04-11T06:18:31.575Z,20.95
2023-04-11T06:20:59.348Z,16.63
2023-04-11T06:23:27.012Z,15.82
2023-04-11T06:25:54.762Z,16.33
2023-04-11T06:28:22.472Z,18.38
2023-04-11T06:30:50.377Z,11.60
2023-04-11T06:33:19.537Z,16.13
2023-04-11T06:35:47.395Z,16.08
2023-04-11T06:38:15.229Z,16.42
2023-04-11T06:40:42.977Z,14.05
2023-04-11T06:43:11.259Z,16.92
2023-04-11T06:45:39.088Z,13.93
2023-04-11T06:48:07.594Z,15.18
2023-04-11T06:50:40.128Z,13.20
2023-04-11T06:55:35.987Z,13.60
2023-04-11T06:58:04.180Z,13.20
2023-04-11T07:00:32.031Z,13.45
2023-04-11T07:03:01.126Z,12.82
2023-04-11T07:05:29.088Z,17.83
2023-04-11T07:07:58.315Z,12.75
2023-04-11T07:10:26.143Z,12.82
2023-04-11T07:12:53.977Z,19.13
2023-04-11T07:15:21.776Z,15.50
2023-04-11T07:17:52.142Z,13.98
2023-04-11T07:20:20.883Z,14.13
2023-04-11T07:22:48.812Z,19.98
2023-04-11T07:25:18.562Z,12.88
2023-04-11T07:27:46.450Z,12.77
2023-04-11T07:30:15.496Z,11.63
2023-04-11T07:32:43.404Z,13.77
2023-04-11T07:35:11.533Z,16.67
2023-04-11T07:37:39.392Z,14.85
2023-04-11T07:40:11.745Z,15.63
2023-04-11T07:42:41.028Z,18.63
2023-04-11T07:45:10.001Z,15.23
2023-04-11T07:47:38.072Z,14.82
2023-04-11T07:50:06.867Z,14.10
2023-04-11T07:52:35.401Z,17.40
2023-04-11T07:55:04.175Z,12.68
2023-04-11T07:57:32.106Z,13.93
2023-04-11T08:00:01.911Z,15.63
2023-04-11T08:02:29.957Z,30.58
2023-04-11T08:04:57.979Z,14.82
2023-04-11T08:07:26.161Z,10.32
2023-04-11T08:09:54.043Z,9.68
2023-04-11T08:12:21.869Z,17.00
2023-04-11T08:14:49.650Z,14.93
2023-04-11T08:17:27.724Z,10.65
2023-04-11T08:19:57.594Z,13.85
2023-04-11T08:22:26.200Z,11.68
2023-04-11T08:24:54.016Z,11.07
2023-04-11T08:27:21.798Z,11.75
2023-04-11T08:29:49.540Z,11.10
2023-04-11T08:32:18.924Z,15.35
2023-04-11T08:34:46.866Z,12.57
2023-04-11T08:37:14.650Z,13.20
2023-04-11T08:39:42.463Z,11.60
2023-04-11T08:42:22.611Z,15.75
2023-04-11T08:44:54.237Z,12.95
2023-04-11T08:47:23.662Z,11.73
2023-04-11T08:49:51.712Z,14.52
2023-04-11T08:52:20.328Z,12.43
2023-04-11T08:54:48.586Z,10.95
2023-04-11T08:57:26.231Z,9.77
2023-04-11T08:59:55.473Z,9.80
2023-04-11T09:02:24.810Z,8.45
2023-04-11T09:04:52.789Z,12.98
2023-04-11T09:07:21.978Z,11.68
2023-04-11T09:09:49.787Z,10.85
2023-04-11T09:12:22.927Z,8.57
2023-04-11T09:14:50.789Z,7.30
2023-04-11T09:17:18.658Z,10.90
2023-04-11T09:19:49.315Z,12.07
2023-04-11T09:22:17.493Z,9.35
2023-04-11T09:24:46.800Z,7.85
2023-04-11T09:27:16.811Z,7.10
2023-04-11T09:29:46.414Z,10.18
2023-04-11T09:32:32.031Z,8.38
2023-04-11T09:35:12.515Z,12.18
2023-04-11T09:37:45.093Z,8.80
2023-04-11T09:40:14.657Z,6.28
2023-04-11T09:42:43.162Z,6.90
2023-04-11T09:45:29.316Z,6.85
2023-04-11T09:48:00.469Z,7.55
2023-04-11T09:50:29.895Z,10.55
2023-04-11T09:52:59.315Z,7.20
2023-04-11T09:55:27.602Z,6.90
2023-04-11T09:57:56.292Z,8.13
2023-04-11T10:00:29.159Z,6.38
2023-04-11T10:02:58.098Z,6.13
2023-04-11T10:05:28.087Z,8.50
2023-04-11T10:08:03.749Z,6.72
2023-04-11T10:10:31.659Z,7.25
2023-04-11T10:12:59.561Z,8.43
2023-04-11T10:15:27.889Z,6.28
2023-04-11T10:18:19.532Z,9.45
2023-04-11T10:20:50.247Z,7.78
2023-04-11T10:23:19.689Z,7.63
2023-04-11T10:25:55.449Z,7.38
2023-04-11T10:28:34.782Z,6.93
2023-04-11T10:31:04.829Z,7.53
2023-04-11T10:33:33.413Z,8.95
2023-04-11T10:36:03.638Z,6.15
2023-04-11T10:38:51.658Z,5.97
2023-04-11T10:41:27.894Z,10.63
2023-04-11T10:44:14.106Z,8.93
2023-04-11T10:46:46.382Z,6.43
2023-04-11T10:49:14.324Z,8.00
2023-04-11T10:51:42.162Z,7.72
2023-04-11T10:54:26.099Z,9.77
2023-04-11T10:56:57.476Z,6.70
2023-04-11T10:59:59.838Z,7.55
2023-04-11T11:02:39.095Z,5.47
2023-04-11T11:05:18.259Z,6.95
2023-04-11T11:07:51.157Z,6.90
2023-04-11T11:10:39.074Z,7.00
2023-04-11T11:13:06.889Z,6.65
2023-04-11T11:15:37.735Z,9.45
2023-04-11T11:18:08.166Z,6.28
2023-04-11T11:20:37.382Z,7.95
2023-04-11T11:23:09.367Z,5.15
2023-04-11T11:25:38.811Z,9.63
2023-04-11T11:28:08.893Z,7.22
2023-04-11T11:30:37.674Z,10.38
2023-04-11T11:33:19.125Z,9.50
2023-04-11T11:35:52.045Z,6.65
2023-04-11T11:38:20.455Z,5.93
2023-04-11T11:40:50.304Z,6.72
2023-04-11T11:43:18.185Z,9.20
2023-04-11T11:45:46.518Z,7.45
2023-04-11T11:48:21.729Z,5.82
2023-04-11T11:50:56.855Z,6.00
2023-04-11T11:53:25.580Z,6.07
2023-04-11T11:55:56.827Z,6.65
2023-04-11T11:58:25.321Z,4.72
2023-04-11T12:00:53.861Z,5.55
2023-04-11T12:03:24.164Z,3.70
2023-04-11T12:05:52.965Z,4.80
2023-04-11T12:08:22.749Z,3.90
2023-04-11T12:10:51.921Z,4.57
2023-04-11T12:13:23.548Z,4.50
2023-04-11T12:15:53.323Z,4.40
2023-04-11T12:18:22.122Z,4.70
2023-04-11T12:20:50.342Z,5.97
2023-04-11T12:23:18.296Z,6.68
2023-04-11T12:25:47.623Z,3.67
2023-04-11T12:28:15.535Z,4.72
2023-04-11T12:30:44.680Z,5.00
2023-04-11T12:33:12.444Z,4.65
2023-04-11T12:35:40.341Z,6.78
2023-04-11T12:38:08.193Z,5.13
2023-04-11T12:40:35.988Z,4.50
2023-04-11T12:43:03.776Z,5.68
2023-04-11T12:45:32.500Z,5.07
2023-04-11T12:48:01.703Z,5.28
2023-04-11T12:50:29.646Z,5.30
2023-04-11T12:52:57.526Z,4.97
2023-04-11T12:55:25.570Z,3.90
2023-04-11T12:57:53.448Z,6.13
2023-04-11T13:00:21.574Z,3.60
2023-04-11T13:02:50.017Z,4.43
2023-04-11T13:05:19.877Z,4.22
2023-04-11T13:07:47.724Z,7.35
2023-04-11T13:10:16.642Z,5.30
2023-04-11T13:12:45.918Z,3.60
2023-04-11T13:15:15.373Z,4.60
2023-04-11T13:17:43.613Z,6.05
2023-04-11T13:20:12.640Z,3.90
2023-04-11T13:22:43.480Z,5.68
2023-04-11T13:25:12.075Z,4.57
2023-04-11T13:27:40.398Z,3.58
2023-04-11T13:30:10.162Z,5.75
2023-04-11T13:32:39.265Z,4.35
2023-04-11T13:35:08.284Z,10.43
2023-04-11T13:37:36.550Z,7.82
2023-04-11T13:40:11.140Z,4.70
2023-04-11T13:42:39.318Z,6.00
2023-04-11T13:45:08.592Z,4.78
2023-04-11T13:47:38.734Z,3.83
2023-04-11T13:50:08.692Z,4.65
2023-04-11T13:52:36.725Z,4.45
2023-04-11T13:55:07.055Z,4.35
2023-04-11T13:57:34.852Z,4.10
2023-04-11T14:00:05.643Z,3.33
2023-04-11T14:02:33.578Z,4.72
2023-04-11T14:05:01.921Z,3.33
2023-04-11T14:07:29.805Z,4.93
2023-04-11T14:09:57.732Z,4.25
2023-04-11T14:12:27.586Z,5.47
2023-04-11T14:14:55.878Z,2.95
2023-04-11T14:17:23.987Z,4.35
2023-04-11T14:19:52.272Z,3.58
2023-04-11T14:22:20.603Z,6.03
2023-04-11T14:24:48.522Z,5.65
2023-04-11T14:27:16.905Z,7.63
2023-04-11T14:29:47.437Z,3.25
2023-04-11T14:32:15.504Z,6.78
2023-04-11T14:34:43.527Z,4.45
2023-04-11T14:37:11.501Z,5.85
2023-04-11T14:39:40.399Z,10.45
2023-04-11T14:42:09.196Z,3.70
2023-04-11T14:44:39.265Z,4.35
2023-04-11T14:47:08.637Z,4.93
2023-04-11T14:49:37.119Z,5.18
2023-04-11T14:52:05.163Z,4.60
2023-04-11T14:54:33.178Z,6.03
2023-04-11T14:57:01.700Z,3.60
2023-04-11T14:59:29.772Z,14.25
2023-04-11T15:01:58.221Z,7.15
2023-04-11T15:04:27.830Z,6.97
2023-04-11T15:06:56.642Z,5.40
2023-04-11T15:09:24.524Z,6.40
2023-04-11T15:11:52.538Z,7.38
2023-04-11T15:14:20.926Z,6.72
2023-04-11T15:16:48.982Z,7.45
2023-04-11T15:19:16.769Z,7.05
2023-04-11T15:21:47.229Z,5.72
2023-04-11T15:24:17.138Z,7.68
2023-04-11T15:26:46.610Z,13.43
2023-04-11T15:29:16.006Z,5.95
2023-04-11T15:31:44.097Z,4.88
2023-04-11T15:34:14.127Z,3.92
2023-04-11T15:36:43.063Z,5.28
2023-04-11T15:39:12.374Z,7.72
2023-04-11T15:41:41.405Z,10.63
2023-04-11T15:44:09.681Z,8.82
2023-04-11T15:46:38.331Z,5.40
2023-04-11T15:49:06.274Z,6.13
2023-04-11T15:51:36.543Z,5.03
2023-04-11T15:54:07.473Z,4.80
2023-04-11T15:56:37.117Z,7.40
2023-04-11T15:59:10.993Z,8.23
2023-04-11T16:01:40.660Z,5.30
2023-04-11T16:04:09.302Z,4.63
2023-04-11T16:06:37.785Z,5.03
2023-04-11T16:09:05.838Z,6.22
2023-04-11T16:11:35.063Z,4.65
2023-04-11T16:14:05.156Z,5.13
2023-04-11T16:16:33.431Z,3.63
2023-04-11T16:19:02.334Z,5.45
2023-04-11T16:21:31.530Z,4.50
2023-04-11T16:24:00.199Z,4.55
2023-04-11T16:26:28.741Z,5.70
2023-04-11T16:28:57.347Z,5.10
2023-04-11T16:31:29.543Z,4.75
2023-04-11T16:33:58.099Z,6.22
2023-04-11T16:36:27.631Z,5.10
2023-04-11T16:38:56.086Z,5.70
2023-04-11T16:41:24.567Z,6.63
2023-04-11T16:43:52.566Z,4.70
2023-04-11T16:46:25.956Z,5.22
2023-04-11T16:49:07.573Z,5.88
2023-04-11T16:51:37.416Z,4.30
2023-04-11T16:54:09.956Z,6.05
2023-04-11T16:56:39.450Z,5.82
2023-04-11T16:59:08.137Z,5.68
2023-04-11T17:01:36.970Z,15.75
2023-04-11T17:04:06.970Z,24.98
2023-04-11T17:06:35.648Z,22.95
2023-04-11T17:09:04.290Z,8.90
2023-04-11T17:11:32.085Z,6.65
2023-04-11T17:14:00.094Z,7.97
2023-04-11T17:16:30.574Z,13.73
2023-04-11T17:19:00.922Z,26.00
2023-04-11T17:21:34.165Z,22.00
2023-04-11T17:24:02.181Z,31.95
2023-04-11T17:26:30.026Z,19.88
2023-04-11T17:28:57.855Z,11.55
2023-04-11T17:31:27.997Z,12.90
2023-04-11T17:33:56.353Z,16.33
2023-04-11T17:36:24.779Z,19.10
2023-04-11T17:38:56.959Z,18.70
2023-04-11T17:41:24.718Z,15.30
2023-04-11T17:43:52.661Z,9.93
2023-04-11T17:46:20.604Z,7.55
2023-04-11T17:48:48.462Z,8.18
2023-04-11T17:51:16.527Z,7.95
2023-04-11T17:53:44.364Z,7.30
2023-04-11T17:56:14.456Z,7.15
2023-04-11T17:58:47.201Z,8.30
2023-04-11T18:01:15.879Z,10.07
2023-04-11T18:03:44.356Z,12.02
2023-04-11T18:06:12.301Z,11.88
2023-04-11T18:11:13.790Z,10.88
2023-04-11T18:13:43.775Z,10.95
2023-04-11T18:16:12.079Z,9.38
2023-04-11T18:18:42.553Z,8.95
2023-04-11T18:21:10.387Z,9.65
2023-04-11T18:23:39.558Z,8.80
2023-04-11T18:26:07.353Z,12.23
2023-04-11T18:28:37.722Z,8.20
2023-04-11T18:31:06.974Z,8.73
2023-04-11T18:33:37.367Z,7.65
2023-04-11T18:36:07.530Z,8.82
2023-04-11T18:38:35.636Z,10.80
2023-04-11T18:41:07.276Z,13.00
2023-04-11T18:43:38.451Z,13.93
2023-04-11T18:46:07.812Z,14.45
2023-04-11T18:48:36.605Z,12.32
2023-04-11T18:51:05.107Z,13.55
2023-04-11T18:53:34.873Z,12.55
2023-04-11T18:56:04.054Z,13.43
2023-04-11T18:58:34.442Z,11.77
2023-04-11T19:01:14.851Z,8.40
2023-04-11T19:03:46.323Z,13.63
2023-04-11T19:06:15.795Z,14.85
2023-04-11T19:08:43.770Z,10.20
2023-04-11T19:11:11.660Z,13.52
2023-04-11T19:13:39.513Z,13.82
2023-04-11T19:16:09.059Z,11.25
2023-04-11T19:18:37.013Z,12.48
2023-04-11T19:21:08.112Z,9.98
2023-04-11T19:23:35.956Z,11.88
2023-04-11T19:26:03.879Z,12.35
2023-04-11T19:28:31.855Z,11.63
2023-04-11T19:30:59.713Z,16.58
2023-04-11T19:33:29.334Z,13.73
2023-04-11T19:35:57.263Z,13.40
2023-04-11T19:38:25.161Z,12.80
2023-04-11T19:40:53.251Z,13.50
2023-04-11T19:43:21.188Z,13.50
2023-04-11T19:45:49.182Z,14.43
2023-04-11T19:48:17.501Z,15.15
2023-04-11T19:50:46.851Z,12.07
2023-04-11T19:53:16.735Z,13.15
2023-04-11T19:55:45.517Z,14.15
2023-04-11T19:58:13.292Z,16.10
2023-04-11T20:00:41.868Z,11.57
2023-04-11T20:03:14.528Z,13.38
2023-04-11T20:05:42.706Z,18.58
2023-04-11T20:08:12.031Z,14.20
2023-04-11T20:10:40.753Z,15.63
2023-04-11T20:13:10.994Z,14.10
2023-04-11T20:15:39.141Z,10.93
2023-04-11T20:18:07.141Z,12.18
2023-04-11T20:20:36.810Z,14.70
2023-04-11T20:23:05.072Z,14.38
2023-04-11T20:25:35.592Z,14.10
2023-04-11T20:28:03.522Z,15.63
2023-04-11T20:30:32.460Z,16.75
2023-04-11T20:33:01.702Z,17.63
2023-04-11T20:35:29.663Z,12.07
2023-04-11T20:37:57.527Z,13.40
2023-04-11T20:40:25.504Z,13.63
2023-04-11T20:42:56.612Z,12.35
2023-04-11T20:45:25.712Z,11.80
2023-04-11T20:47:55.015Z,12.05
2023-04-11T20:50:22.868Z,10.75
2023-04-11T20:52:52.806Z,9.05
2023-04-11T20:55:21.727Z,8.68
2023-04-11T20:57:49.594Z,8.65
2023-04-11T21:00:20.928Z,12.63
2023-04-11T21:02:50.397Z,9.13
2023-04-11T21:05:21.307Z,12.32
2023-04-11T21:07:49.336Z,9.18
2023-04-11T21:10:17.206Z,8.90
2023-04-11T21:12:51.256Z,7.03
2023-04-11T21:15:21.031Z,7.40
2023-04-11T21:17:48.934Z,10.70
2023-04-11T21:20:20.286Z,6.22
2023-04-11T21:22:50.609Z,10.90
2023-04-11T21:25:18.488Z,9.75
2023-04-11T21:27:48.085Z,7.78
2023-04-11T21:30:17.114Z,9.55
2023-04-11T21:32:47.134Z,9.23
2023-04-11T21:35:15.034Z,10.93
2023-04-11T21:37:42.910Z,9.15
2023-04-11T21:40:12.669Z,8.68
2023-04-11T21:42:41.020Z,8.93
2023-04-11T21:45:10.061Z,8.20
2023-04-11T21:47:38.363Z,7.50
2023-04-11T21:50:09.356Z,9.75
2023-04-11T21:52:37.160Z,11.05
2023-04-11T21:55:08.520Z,8.98
2023-04-11T21:57:37.059Z,8.40
2023-04-11T22:00:06.162Z,9.73
2023-04-11T22:02:34.188Z,9.48
2023-04-11T22:05:06.541Z,8.27
2023-04-11T22:07:47.549Z,10.95
2023-04-11T22:10:30.337Z,9.57
2023-04-11T22:13:03.224Z,10.15
2023-04-11T22:15:33.158Z,7.05
2023-04-11T22:18:02.364Z,8.05
2023-04-11T22:20:30.772Z,8.85
2023-04-11T22:22:59.980Z,7.00
2023-04-11T22:25:27.654Z,10.57
2023-04-11T22:27:56.256Z,6.32
2023-04-11T22:30:24.815Z,7.45
2023-04-11T22:32:54.339Z,4.97
2023-04-11T22:35:22.385Z,7.13
2023-04-11T22:37:50.156Z,6.10
2023-04-11T22:40:22.292Z,7.35
2023-04-11T22:42:51.819Z,9.00
2023-04-11T22:45:20.699Z,6.30
2023-04-11T22:47:53.942Z,9.50
2023-04-11T22:50:22.197Z,8.65
2023-04-11T22:52:50.149Z,7.53
2023-04-11T22:55:21.146Z,7.30
2023-04-11T22:57:49.150Z,5.72
2023-04-11T23:00:19.325Z,7.63
2023-04-11T23:02:47.342Z,8.40
2023-04-11T23:05:16.805Z,6.10
2023-04-11T23:07:44.615Z,9.02
2023-04-11T23:10:14.620Z,8.48
2023-04-11T23:12:44.535Z,8.65
2023-04-11T23:15:13.271Z,5.95
2023-04-11T23:17:41.320Z,8.45
2023-04-11T23:20:13.802Z,7.18
2023-04-11T23:22:43.756Z,8.35
2023-04-11T23:25:12.735Z,9.27
2023-04-11T23:27:40.780Z,7.75
2023-04-11T23:30:12.208Z,7.75
2023-04-11T23:32:40.842Z,8.13
2023-04-11T23:35:09.797Z,9.35
2023-04-11T23:37:37.904Z,8.65
2023-04-11T23:40:10.428Z,7.10
2023-04-11T23:42:38.602Z,6.35
2023-04-11T23:45:07.199Z,6.72
2023-04-11T23:47:36.650Z,8.10
2023-04-11T23:50:05.368Z,5.57
2023-04-11T23:52:33.434Z,6.85
2023-04-11T23:55:01.194Z,7.57
2023-04-11T23:57:29.024Z,11.55
2023-04-11T23:59:56.797Z,9.60
